DAL8384 KMEM-KLIT
Flight info
| Callsign | DAL8384 |
|---|---|
| Flight time | 0h 33m |
| Altitude | 16000 |
| Route | CHLDR5 ANSWA |
| Aircraft | SF50/L-SDGRWY/L |
Departure
| Time | 2026-04-21 00:52 |
|---|---|
| Airport | Memphis International Airport (KMEM) |
Arrival
| Time | 2026-04-21 01:25 |
|---|---|
| Airport | Bill & Hillary Clinton National Airport/Adams Field (KLIT) |
| Time | Latitude | Longitude | Altitude | Speed | Heading |
|---|---|---|---|---|---|
| 2026-04-21 00:37 | 35.04129 | -89.98234 | 304 ft | 0 kts | 327° |
| 2026-04-21 00:44 | 35.04116 | -89.98224 | 304 ft | 3 kts | 327° |
| 2026-04-21 00:44 | 35.04101 | -89.98213 | 303 ft | 2 kts | 342° |
| 2026-04-21 00:44 | 35.04096 | -89.98216 | 303 ft | 0 kts | 62° |
| 2026-04-21 00:45 | 35.04081 | -89.98215 | 303 ft | 9 kts | 199° |
| 2026-04-21 00:45 | 35.04014 | -89.98240 | 301 ft | 0 kts | 202° |
| 2026-04-21 00:46 | 35.04008 | -89.98242 | 303 ft | 4 kts | 197° |
| 2026-04-21 00:47 | 35.03961 | -89.98264 | 300 ft | 9 kts | 200° |
| 2026-04-21 00:47 | 35.03901 | -89.98287 | 300 ft | 9 kts | 233° |
| 2026-04-21 00:47 | 35.03883 | -89.98356 | 301 ft | 9 kts | 269° |
| 2026-04-21 00:47 | 35.03885 | -89.98457 | 300 ft | 14 kts | 281° |
| 2026-04-21 00:48 | 35.03974 | -89.98497 | 297 ft | 16 kts | 359° |
| 2026-04-21 00:48 | 35.04098 | -89.98500 | 296 ft | 19 kts | 357° |
| 2026-04-21 00:48 | 35.04225 | -89.98497 | 292 ft | 17 kts | 1° |
| 2026-04-21 00:48 | 35.04331 | -89.98503 | 292 ft | 14 kts | 360° |
| 2026-04-21 00:49 | 35.04420 | -89.98507 | 291 ft | 11 kts | 10° |
| 2026-04-21 00:49 | 35.04488 | -89.98507 | 290 ft | 9 kts | 0° |
| 2026-04-21 00:49 | 35.04564 | -89.98504 | 291 ft | 15 kts | 3° |
| 2026-04-21 00:49 | 35.04691 | -89.98510 | 293 ft | 20 kts | 356° |
| 2026-04-21 00:50 | 35.04820 | -89.98513 | 292 ft | 19 kts | 357° |
| 2026-04-21 00:50 | 35.04932 | -89.98541 | 291 ft | 14 kts | 297° |
| 2026-04-21 00:50 | 35.04931 | -89.98660 | 292 ft | 15 kts | 264° |
| 2026-04-21 00:50 | 35.04868 | -89.98743 | 294 ft | 0 kts | 182° |
| 2026-04-21 00:51 | 35.04743 | -89.98740 | 291 ft | 56 kts | 179° |
| 2026-04-21 00:51 | 35.04107 | -89.98724 | 350 ft | 122 kts | 176° |
| 2026-04-21 00:51 | 35.03136 | -89.98669 | 690 ft | 150 kts | 179° |
| 2026-04-21 00:52 | 35.02054 | -89.98662 | 1194 ft | 159 kts | 182° |
| 2026-04-21 00:52 | 35.00948 | -89.98876 | 1703 ft | 164 kts | 196° |
| 2026-04-21 00:52 | 34.99836 | -89.99265 | 2193 ft | 170 kts | 197° |
| 2026-04-21 00:52 | 34.98723 | -89.99658 | 2673 ft | 166 kts | 197° |
| 2026-04-21 00:53 | 34.97635 | -90.00045 | 3199 ft | 164 kts | 197° |
| 2026-04-21 00:53 | 34.96531 | -90.00433 | 3766 ft | 166 kts | 197° |
| 2026-04-21 00:53 | 34.95473 | -90.00977 | 4330 ft | 166 kts | 216° |
| 2026-04-21 00:53 | 34.94675 | -90.01996 | 4904 ft | 171 kts | 235° |
| 2026-04-21 00:54 | 34.94203 | -90.03451 | 4992 ft | 200 kts | 260° |
| 2026-04-21 00:54 | 34.94185 | -90.05268 | 4999 ft | 227 kts | 269° |
| 2026-04-21 00:54 | 34.94194 | -90.07175 | 5398 ft | 215 kts | 268° |
| 2026-04-21 00:54 | 34.94191 | -90.08906 | 5956 ft | 192 kts | 268° |
| 2026-04-21 00:55 | 34.94188 | -90.10449 | 6514 ft | 177 kts | 268° |
| 2026-04-21 00:55 | 34.94114 | -90.11899 | 7051 ft | 172 kts | 263° |
| 2026-04-21 00:55 | 34.94010 | -90.13357 | 7601 ft | 174 kts | 264° |
| 2026-04-21 00:55 | 34.93909 | -90.14828 | 8164 ft | 174 kts | 265° |
| 2026-04-21 00:56 | 34.93810 | -90.16314 | 8731 ft | 177 kts | 265° |
| 2026-04-21 00:56 | 34.93708 | -90.17822 | 9322 ft | 179 kts | 266° |
| 2026-04-21 00:56 | 34.93607 | -90.19344 | 9913 ft | 181 kts | 266° |
| 2026-04-21 00:56 | 34.93503 | -90.20878 | 10476 ft | 182 kts | 267° |
| 2026-04-21 00:57 | 34.93399 | -90.22419 | 11025 ft | 183 kts | 268° |
| 2026-04-21 00:57 | 34.93305 | -90.23940 | 11574 ft | 183 kts | 269° |
| 2026-04-21 00:57 | 34.93224 | -90.25485 | 12141 ft | 183 kts | 269° |
| 2026-04-21 00:57 | 34.93136 | -90.27034 | 12719 ft | 184 kts | 269° |
| 2026-04-21 00:58 | 34.93050 | -90.28586 | 13306 ft | 183 kts | 270° |
| 2026-04-21 00:58 | 34.92960 | -90.30133 | 13905 ft | 182 kts | 270° |
| 2026-04-21 00:58 | 34.92874 | -90.31669 | 14454 ft | 181 kts | 270° |
| 2026-04-21 00:58 | 34.92786 | -90.33192 | 14989 ft | 179 kts | 271° |
| 2026-04-21 00:59 | 34.92701 | -90.34700 | 15534 ft | 177 kts | 271° |
| 2026-04-21 00:59 | 34.92614 | -90.36200 | 15970 ft | 183 kts | 271° |
| 2026-04-21 00:59 | 34.92529 | -90.37835 | 15991 ft | 208 kts | 271° |
| 2026-04-21 00:59 | 34.92422 | -90.39677 | 16004 ft | 227 kts | 270° |
| 2026-04-21 01:00 | 34.92305 | -90.41654 | 16004 ft | 240 kts | 270° |
| 2026-04-21 01:00 | 34.92183 | -90.43715 | 16002 ft | 248 kts | 270° |
| 2026-04-21 01:00 | 34.92060 | -90.45828 | 16003 ft | 253 kts | 270° |
| 2026-04-21 01:00 | 34.91936 | -90.47981 | 16003 ft | 257 kts | 269° |
| 2026-04-21 01:01 | 34.91807 | -90.50162 | 15998 ft | 260 kts | 269° |
| 2026-04-21 01:01 | 34.91679 | -90.52371 | 16000 ft | 263 kts | 269° |
| 2026-04-21 01:01 | 34.91548 | -90.54601 | 15999 ft | 265 kts | 269° |
| 2026-04-21 01:01 | 34.91415 | -90.56844 | 16000 ft | 266 kts | 269° |
| 2026-04-21 01:02 | 34.91284 | -90.59072 | 15997 ft | 268 kts | 269° |
| 2026-04-21 01:02 | 34.91150 | -90.61340 | 15997 ft | 269 kts | 269° |
| 2026-04-21 01:02 | 34.91013 | -90.63615 | 15996 ft | 270 kts | 269° |
| 2026-04-21 01:02 | 34.90878 | -90.65899 | 15996 ft | 271 kts | 269° |
| 2026-04-21 01:03 | 34.90742 | -90.68186 | 15993 ft | 271 kts | 269° |
| 2026-04-21 01:03 | 34.90603 | -90.70483 | 15993 ft | 272 kts | 269° |
| 2026-04-21 01:03 | 34.90462 | -90.72787 | 15993 ft | 273 kts | 268° |
| 2026-04-21 01:03 | 34.90139 | -90.75070 | 15991 ft | 274 kts | 262° |
| 2026-04-21 01:04 | 34.89785 | -90.77323 | 15986 ft | 275 kts | 263° |
| 2026-04-21 01:04 | 34.89442 | -90.79613 | 15986 ft | 275 kts | 263° |
| 2026-04-21 01:04 | 34.89094 | -90.81907 | 15987 ft | 276 kts | 263° |
| 2026-04-21 01:04 | 34.88742 | -90.84210 | 15988 ft | 276 kts | 263° |
| 2026-04-21 01:05 | 34.88391 | -90.86512 | 15990 ft | 277 kts | 263° |
| 2026-04-21 01:05 | 34.88037 | -90.88818 | 15990 ft | 277 kts | 262° |
| 2026-04-21 01:05 | 34.87683 | -90.91128 | 15991 ft | 277 kts | 263° |
| 2026-04-21 01:05 | 34.87330 | -90.93436 | 15993 ft | 278 kts | 262° |
| 2026-04-21 01:06 | 34.86973 | -90.95751 | 15998 ft | 278 kts | 262° |
| 2026-04-21 01:06 | 34.86623 | -90.98037 | 15998 ft | 279 kts | 262° |
| 2026-04-21 01:06 | 34.86264 | -91.00359 | 15999 ft | 279 kts | 262° |
| 2026-04-21 01:06 | 34.85905 | -91.02686 | 15999 ft | 280 kts | 262° |
| 2026-04-21 01:07 | 34.85547 | -91.05015 | 15998 ft | 280 kts | 262° |
| 2026-04-21 01:07 | 34.85184 | -91.07351 | 16001 ft | 281 kts | 262° |
| 2026-04-21 01:07 | 34.84822 | -91.09693 | 16001 ft | 282 kts | 262° |
| 2026-04-21 01:07 | 34.84455 | -91.12080 | 15590 ft | 294 kts | 262° |
| 2026-04-21 01:08 | 34.84073 | -91.14528 | 15067 ft | 295 kts | 262° |
| 2026-04-21 01:08 | 34.83690 | -91.16982 | 14541 ft | 295 kts | 261° |
| 2026-04-21 01:08 | 34.83315 | -91.19399 | 14010 ft | 293 kts | 261° |
| 2026-04-21 01:08 | 34.82936 | -91.21820 | 13408 ft | 290 kts | 261° |
| 2026-04-21 01:09 | 34.82563 | -91.24220 | 12823 ft | 287 kts | 261° |
| 2026-04-21 01:09 | 34.82192 | -91.26591 | 12242 ft | 283 kts | 261° |
| 2026-04-21 01:09 | 34.81826 | -91.28925 | 11671 ft | 280 kts | 260° |
| 2026-04-21 01:09 | 34.81463 | -91.31253 | 11045 ft | 280 kts | 260° |
| 2026-04-21 01:10 | 34.81100 | -91.33560 | 10427 ft | 276 kts | 260° |
| 2026-04-21 01:10 | 34.80742 | -91.35838 | 9781 ft | 272 kts | 259° |
| 2026-04-21 01:10 | 34.80394 | -91.38056 | 9119 ft | 269 kts | 259° |
| 2026-04-21 01:10 | 34.80042 | -91.40281 | 8465 ft | 267 kts | 258° |
| 2026-04-21 01:11 | 34.79695 | -91.42488 | 7825 ft | 265 kts | 258° |
| 2026-04-21 01:11 | 34.79350 | -91.44678 | 7197 ft | 263 kts | 257° |
| 2026-04-21 01:11 | 34.79005 | -91.46854 | 6573 ft | 261 kts | 257° |
| 2026-04-21 01:11 | 34.78663 | -91.49012 | 5917 ft | 259 kts | 257° |
| 2026-04-21 01:12 | 34.78324 | -91.51153 | 5274 ft | 257 kts | 257° |
| 2026-04-21 01:12 | 34.77990 | -91.53264 | 4623 ft | 253 kts | 257° |
| 2026-04-21 01:12 | 34.77657 | -91.55358 | 4074 ft | 251 kts | 257° |
| 2026-04-21 01:12 | 34.77330 | -91.57416 | 3617 ft | 250 kts | 257° |
| 2026-04-21 01:13 | 34.76999 | -91.59491 | 3196 ft | 251 kts | 257° |
| 2026-04-21 01:13 | 34.76667 | -91.61576 | 2833 ft | 249 kts | 256° |
| 2026-04-21 01:13 | 34.76339 | -91.63629 | 2631 ft | 248 kts | 256° |
| 2026-04-21 01:13 | 34.76008 | -91.65704 | 2506 ft | 250 kts | 256° |
| 2026-04-21 01:14 | 34.75673 | -91.67793 | 2505 ft | 254 kts | 256° |
| 2026-04-21 01:14 | 34.75335 | -91.69905 | 2505 ft | 253 kts | 256° |
| 2026-04-21 01:14 | 34.74997 | -91.72019 | 2506 ft | 256 kts | 256° |
| 2026-04-21 01:14 | 34.74681 | -91.74014 | 2504 ft | 226 kts | 256° |
| 2026-04-21 01:15 | 34.74391 | -91.75854 | 2498 ft | 215 kts | 258° |
| 2026-04-21 01:15 | 34.74385 | -91.77587 | 2491 ft | 196 kts | 274° |
| 2026-04-21 01:15 | 34.74713 | -91.79110 | 2490 ft | 179 kts | 287° |
| 2026-04-21 01:15 | 34.75235 | -91.80449 | 2492 ft | 173 kts | 291° |
| 2026-04-21 01:16 | 34.75733 | -91.81779 | 2491 ft | 173 kts | 290° |
| 2026-04-21 01:16 | 34.76237 | -91.83097 | 2491 ft | 170 kts | 290° |
| 2026-04-21 01:16 | 34.76727 | -91.84367 | 2491 ft | 163 kts | 290° |
| 2026-04-21 01:16 | 34.77202 | -91.85597 | 2488 ft | 158 kts | 290° |
| 2026-04-21 01:17 | 34.77662 | -91.86793 | 2488 ft | 155 kts | 290° |
| 2026-04-21 01:17 | 34.78115 | -91.87970 | 2481 ft | 153 kts | 290° |
| 2026-04-21 01:17 | 34.78561 | -91.89122 | 2481 ft | 153 kts | 290° |
| 2026-04-21 01:17 | 34.79012 | -91.90304 | 2482 ft | 155 kts | 290° |
| 2026-04-21 01:18 | 34.79472 | -91.91494 | 2487 ft | 156 kts | 290° |
| 2026-04-21 01:18 | 34.79931 | -91.92689 | 2492 ft | 154 kts | 290° |
| 2026-04-21 01:18 | 34.80371 | -91.93818 | 2495 ft | 143 kts | 290° |
| 2026-04-21 01:18 | 34.80791 | -91.94920 | 2491 ft | 146 kts | 289° |
| 2026-04-21 01:19 | 34.81239 | -91.96092 | 2496 ft | 159 kts | 290° |
| 2026-04-21 01:19 | 34.81718 | -91.97347 | 2495 ft | 167 kts | 290° |
| 2026-04-21 01:19 | 34.82219 | -91.98649 | 2494 ft | 172 kts | 291° |
| 2026-04-21 01:19 | 34.82722 | -91.99956 | 2493 ft | 174 kts | 291° |
| 2026-04-21 01:20 | 34.83235 | -92.01292 | 2492 ft | 175 kts | 291° |
| 2026-04-21 01:20 | 34.83752 | -92.02634 | 2492 ft | 175 kts | 290° |
| 2026-04-21 01:20 | 34.84270 | -92.03975 | 2492 ft | 175 kts | 291° |
| 2026-04-21 01:20 | 34.84546 | -92.05364 | 2472 ft | 166 kts | 257° |
| 2026-04-21 01:21 | 34.83900 | -92.06387 | 2476 ft | 153 kts | 207° |
| 2026-04-21 01:21 | 34.83059 | -92.07148 | 2474 ft | 152 kts | 225° |
| 2026-04-21 01:21 | 34.82343 | -92.08094 | 2476 ft | 152 kts | 224° |
| 2026-04-21 01:21 | 34.81636 | -92.09029 | 2478 ft | 152 kts | 225° |
| 2026-04-21 01:22 | 34.80923 | -92.09992 | 2409 ft | 156 kts | 226° |
| 2026-04-21 01:22 | 34.80190 | -92.11003 | 2217 ft | 162 kts | 226° |
| 2026-04-21 01:22 | 34.79435 | -92.12043 | 2011 ft | 165 kts | 226° |
| 2026-04-21 01:22 | 34.78666 | -92.13090 | 1785 ft | 167 kts | 225° |
| 2026-04-21 01:23 | 34.77904 | -92.14136 | 1569 ft | 157 kts | 226° |
| 2026-04-21 01:23 | 34.77220 | -92.15077 | 1368 ft | 139 kts | 225° |
| 2026-04-21 01:23 | 34.76645 | -92.15866 | 1198 ft | 110 kts | 225° |
| 2026-04-21 01:23 | 34.76153 | -92.16534 | 1056 ft | 104 kts | 224° |
| 2026-04-21 01:24 | 34.75676 | -92.17188 | 922 ft | 102 kts | 227° |
| 2026-04-21 01:24 | 34.75208 | -92.17830 | 786 ft | 104 kts | 226° |
| 2026-04-21 01:24 | 34.74793 | -92.18508 | 641 ft | 93 kts | 218° |
| 2026-04-21 01:24 | 34.74332 | -92.19070 | 557 ft | 93 kts | 218° |
| 2026-04-21 01:25 | 34.73922 | -92.19606 | 401 ft | 85 kts | 222° |
| 2026-04-21 01:25 | 34.73480 | -92.20163 | 294 ft | 85 kts | 223° |
| 2026-04-21 01:25 | 34.73148 | -92.20555 | 262 ft | 33 kts | 232° |
| 2026-04-21 01:25 | 34.73088 | -92.20646 | 262 ft | 15 kts | 227° |
| 2026-04-21 01:26 | 34.72993 | -92.20778 | 261 ft | 28 kts | 224° |
| 2026-04-21 01:26 | 34.72865 | -92.20954 | 260 ft | 20 kts | 232° |
| 2026-04-21 01:26 | 34.72804 | -92.21106 | 259 ft | 20 kts | 253° |
| 2026-04-21 01:26 | 34.72815 | -92.21250 | 261 ft | 16 kts | 295° |
| 2026-04-21 01:27 | 34.72856 | -92.21357 | 261 ft | 13 kts | 293° |
| 2026-04-21 01:27 | 34.72892 | -92.21457 | 261 ft | 14 kts | 294° |
| 2026-04-21 01:27 | 34.72936 | -92.21573 | 261 ft | 16 kts | 294° |
| 2026-04-21 01:27 | 34.72978 | -92.21688 | 261 ft | 14 kts | 293° |
| 2026-04-21 01:28 | 34.73017 | -92.21787 | 261 ft | 12 kts | 309° |
| 2026-04-21 01:28 | 34.73084 | -92.21778 | 261 ft | 8 kts | 3° |
| 2026-04-21 01:28 | 34.73099 | -92.21824 | 261 ft | 8 kts | 323° |
| 2026-04-21 01:28 | 34.73129 | -92.21893 | 261 ft | 11 kts | 230° |
| 2026-04-21 01:29 | 34.73105 | -92.21924 | 261 ft | 0 kts | 228° |